createdAt,value
2019-05-19T00:01:49.043Z,17.10
2019-05-19T00:03:52.701Z,17.30
2019-05-19T00:05:56.480Z,17.20
2019-05-19T00:08:00.236Z,16.60
2019-05-19T00:10:06.221Z,17.60
2019-05-19T00:12:10.150Z,17.00
2019-05-19T00:14:13.874Z,17.30
2019-05-19T00:16:17.546Z,16.80
2019-05-19T00:18:21.231Z,16.80
2019-05-19T00:20:24.977Z,17.00
2019-05-19T00:22:28.649Z,16.70
2019-05-19T00:24:32.306Z,16.80
2019-05-19T00:26:36.011Z,16.30
2019-05-19T00:28:39.702Z,16.70
2019-05-19T00:30:43.793Z,17.20
2019-05-19T00:32:47.443Z,17.50
2019-05-19T00:34:51.184Z,17.60
2019-05-19T00:36:54.876Z,17.40
2019-05-19T00:38:58.526Z,17.60
2019-05-19T00:41:02.227Z,17.30
2019-05-19T00:43:05.911Z,16.70
2019-05-19T00:45:09.988Z,16.70
2019-05-19T00:47:13.650Z,16.60
2019-05-19T00:49:17.306Z,16.30
2019-05-19T00:51:21.600Z,16.90
2019-05-19T00:53:25.264Z,17.10
2019-05-19T00:55:29.822Z,17.30
2019-05-19T00:57:33.803Z,17.40
2019-05-19T00:59:38.373Z,17.50
2019-05-19T01:01:42.061Z,17.10
2019-05-19T01:03:45.779Z,16.30
2019-05-19T01:05:49.463Z,16.40
2019-05-19T01:07:53.154Z,16.60
2019-05-19T01:09:56.809Z,16.70
2019-05-19T01:12:00.492Z,16.50
2019-05-19T01:14:04.243Z,16.60
2019-05-19T01:16:08.044Z,16.60
2019-05-19T01:18:11.725Z,16.60
2019-05-19T01:20:16.392Z,16.70
2019-05-19T01:22:20.067Z,16.60
2019-05-19T01:24:23.738Z,16.70
2019-05-19T01:26:27.450Z,16.70
2019-05-19T01:28:31.107Z,16.70
2019-05-19T01:30:34.761Z,16.40
2019-05-19T01:32:38.443Z,16.30
2019-05-19T01:34:42.103Z,16.60
2019-05-19T01:36:45.759Z,16.80
2019-05-19T01:38:49.623Z,16.60
2019-05-19T01:40:53.299Z,16.40
2019-05-19T01:42:57.001Z,17.00
2019-05-19T01:45:00.660Z,17.00
2019-05-19T01:47:04.322Z,17.20
2019-05-19T01:49:08.011Z,17.40
2019-05-19T01:51:11.663Z,17.30
2019-05-19T01:53:15.354Z,17.40
2019-05-19T01:55:19.024Z,17.40
2019-05-19T01:57:22.725Z,17.40
2019-05-19T01:59:26.412Z,17.50
2019-05-19T02:01:30.105Z,17.60
2019-05-19T02:03:33.792Z,17.60
2019-05-19T02:05:37.522Z,17.70
2019-05-19T02:07:41.212Z,17.70
2019-05-19T02:09:44.947Z,17.70
2019-05-19T02:11:48.639Z,17.70
2019-05-19T02:13:52.340Z,17.70
2019-05-19T02:15:56.072Z,17.70
2019-05-19T02:17:59.732Z,17.80
2019-05-19T02:20:04.323Z,17.80
2019-05-19T02:22:07.988Z,17.80
2019-05-19T02:24:11.699Z,17.80
2019-05-19T02:26:15.352Z,17.80
2019-05-19T02:28:19.043Z,17.70
2019-05-19T02:30:22.779Z,17.70
2019-05-19T02:32:26.443Z,17.60
2019-05-19T02:34:30.124Z,17.50
2019-05-19T02:36:33.897Z,17.50
2019-05-19T02:38:37.583Z,17.40
2019-05-19T02:40:42.948Z,17.40
2019-05-19T02:42:48.710Z,17.40
2019-05-19T02:44:53.499Z,17.30
2019-05-19T02:46:58.779Z,17.30
2019-05-19T02:49:03.470Z,17.30
2019-05-19T02:51:09.327Z,17.40
2019-05-19T02:53:13.393Z,17.40
2019-05-19T02:55:18.667Z,17.40
2019-05-19T02:57:22.629Z,17.40
2019-05-19T02:59:26.827Z,17.40
2019-05-19T03:01:30.492Z,17.10
2019-05-19T03:03:34.155Z,17.00
2019-05-19T03:05:38.154Z,16.90
2019-05-19T03:07:41.875Z,16.90
2019-05-19T03:09:45.651Z,17.00
2019-05-19T03:11:49.335Z,17.00
2019-05-19T03:13:53.095Z,17.00
2019-05-19T03:15:56.926Z,17.00
2019-05-19T03:18:00.583Z,17.00
2019-05-19T03:20:06.239Z,17.00
2019-05-19T03:22:09.963Z,17.00
2019-05-19T03:24:13.661Z,16.90
2019-05-19T03:26:17.537Z,16.80
2019-05-19T03:28:21.211Z,16.80
2019-05-19T03:30:35.195Z,16.80
2019-05-19T03:32:40.630Z,16.90
2019-05-19T03:34:44.287Z,16.90
2019-05-19T03:36:48.009Z,16.90
2019-05-19T03:38:51.667Z,16.90
2019-05-19T03:40:55.346Z,16.90
2019-05-19T03:42:59.034Z,16.90
2019-05-19T03:45:02.714Z,16.80
2019-05-19T03:47:06.524Z,16.60
2019-05-19T03:49:10.359Z,16.50
2019-05-19T03:51:29.111Z,16.30
2019-05-19T03:53:19.444Z,16.10
2019-05-19T03:55:23.101Z,16.10
2019-05-19T03:57:26.792Z,16.10
2019-05-19T03:59:30.471Z,16.00
2019-05-19T04:01:34.157Z,16.20
2019-05-19T04:03:37.887Z,16.20
2019-05-19T04:05:41.563Z,16.20
2019-05-19T04:07:45.252Z,16.20
2019-05-19T04:09:48.906Z,16.30
2019-05-19T04:11:52.595Z,16.40
2019-05-19T04:13:56.288Z,16.60
2019-05-19T04:16:00.056Z,16.60
2019-05-19T04:18:03.799Z,16.70
2019-05-19T04:20:07.964Z,16.60
2019-05-19T04:22:11.719Z,16.50
2019-05-19T04:24:15.658Z,16.50
2019-05-19T04:26:19.355Z,16.60
2019-05-19T04:28:23.044Z,16.60
2019-05-19T04:30:26.732Z,16.50
2019-05-19T04:32:30.445Z,16.50
2019-05-19T04:34:34.173Z,16.50
2019-05-19T04:36:37.924Z,16.40
2019-05-19T04:38:41.567Z,16.40
2019-05-19T04:40:45.317Z,16.50
2019-05-19T04:42:48.978Z,16.60
2019-05-19T04:44:52.669Z,16.70
2019-05-19T04:46:56.339Z,16.70
2019-05-19T04:49:00.023Z,16.70
2019-05-19T04:51:03.687Z,16.70
2019-05-19T04:53:07.382Z,16.80
2019-05-19T04:55:11.030Z,16.90
2019-05-19T04:57:14.705Z,17.00
2019-05-19T04:59:18.499Z,16.80
2019-05-19T05:01:22.166Z,16.90
2019-05-19T05:03:25.903Z,17.10
2019-05-19T05:05:29.612Z,17.20
2019-05-19T05:07:33.368Z,17.20
2019-05-19T05:09:37.139Z,17.30
2019-05-19T05:11:41.634Z,17.40
2019-05-19T05:13:45.292Z,17.40
2019-05-19T05:15:49.089Z,17.40
2019-05-19T05:17:52.790Z,17.60
2019-05-19T05:19:56.477Z,17.70
2019-05-19T05:22:00.164Z,17.80
2019-05-19T05:24:03.849Z,17.50
2019-05-19T05:26:07.539Z,17.50
2019-05-19T05:28:11.333Z,17.10
2019-05-19T05:30:15.009Z,17.40
2019-05-19T05:32:18.660Z,17.50
2019-05-19T05:34:22.328Z,16.70
2019-05-19T05:36:27.767Z,17.20
2019-05-19T05:38:31.404Z,17.30
2019-05-19T05:40:35.458Z,17.40
2019-05-19T05:42:39.130Z,16.70
2019-05-19T05:44:42.792Z,17.30
2019-05-19T05:46:46.584Z,17.80
2019-05-19T05:48:50.242Z,18.10
2019-05-19T05:50:53.937Z,18.30
2019-05-19T05:52:57.606Z,18.60
2019-05-19T05:55:01.301Z,18.80
2019-05-19T05:57:05.056Z,19.00
2019-05-19T05:59:08.731Z,18.90
2019-05-19T06:01:12.419Z,19.00
2019-05-19T06:03:16.162Z,19.20
2019-05-19T06:05:19.979Z,19.10
2019-05-19T06:07:23.668Z,18.90
2019-05-19T06:09:27.350Z,19.00
2019-05-19T06:11:31.286Z,19.00
2019-05-19T06:13:34.928Z,19.20
2019-05-19T06:15:38.629Z,19.50
2019-05-19T06:17:42.335Z,19.60
2019-05-19T06:19:45.994Z,19.80
2019-05-19T06:21:49.893Z,20.00
2019-05-19T06:23:53.628Z,20.10
2019-05-19T06:25:57.391Z,20.30
2019-05-19T06:28:01.183Z,20.30
2019-05-19T06:30:08.631Z,20.30
2019-05-19T06:32:27.654Z,20.40
2019-05-19T06:34:31.440Z,20.40
2019-05-19T06:36:35.164Z,20.30
2019-05-19T06:38:38.857Z,20.40
2019-05-19T06:40:42.654Z,20.40
2019-05-19T06:42:46.340Z,20.40
2019-05-19T06:44:50.025Z,20.30
2019-05-19T06:46:53.759Z,20.50
2019-05-19T06:48:57.414Z,20.70
2019-05-19T06:51:01.083Z,20.80
2019-05-19T06:53:13.938Z,20.90
2019-05-19T06:55:10.355Z,21.00
2019-05-19T06:57:14.021Z,21.10
2019-05-19T06:59:17.850Z,20.20
2019-05-19T07:01:21.514Z,21.00
2019-05-19T07:03:25.208Z,21.10
2019-05-19T07:05:28.861Z,20.50
2019-05-19T07:07:32.668Z,20.50
2019-05-19T07:09:36.383Z,20.50
2019-05-19T07:11:40.094Z,20.60
2019-05-19T07:13:43.914Z,20.50
2019-05-19T07:15:47.565Z,20.00
2019-05-19T07:17:51.368Z,20.60
2019-05-19T07:19:55.143Z,19.80
2019-05-19T07:21:58.847Z,19.10
2019-05-19T07:24:02.641Z,19.60
2019-05-19T07:26:06.355Z,19.40
2019-05-19T07:28:10.035Z,19.20
2019-05-19T07:30:13.871Z,19.70
2019-05-19T07:32:17.539Z,19.50
2019-05-19T07:34:21.226Z,18.90
2019-05-19T07:36:24.937Z,18.50
2019-05-19T07:38:28.678Z,18.90
2019-05-19T07:40:32.347Z,19.20
2019-05-19T07:42:36.066Z,19.70
2019-05-19T07:44:39.758Z,19.60
2019-05-19T07:46:43.422Z,19.50
2019-05-19T07:48:47.373Z,19.30
2019-05-19T07:50:51.015Z,19.50
2019-05-19T07:52:54.704Z,19.20
2019-05-19T07:54:58.477Z,18.00
2019-05-19T07:57:02.151Z,18.10
2019-05-19T07:59:07.912Z,18.10
2019-05-19T08:01:11.251Z,18.50
2019-05-19T08:03:14.947Z,18.60
2019-05-19T08:05:18.644Z,18.50
2019-05-19T08:07:22.307Z,18.50
2019-05-19T08:09:26.019Z,18.80
2019-05-19T08:11:29.706Z,19.50
2019-05-19T08:13:33.368Z,20.10
2019-05-19T08:15:37.107Z,19.70
2019-05-19T08:17:40.787Z,19.60
2019-05-19T08:19:44.475Z,20.10
2019-05-19T08:21:48.152Z,20.30
2019-05-19T08:24:00.293Z,19.90
2019-05-19T08:25:57.274Z,19.70
2019-05-19T08:28:08.431Z,20.10
2019-05-19T08:30:06.899Z,20.60
2019-05-19T08:32:10.566Z,20.80
2019-05-19T08:34:14.282Z,20.50
2019-05-19T08:36:17.973Z,20.60
2019-05-19T08:38:21.631Z,20.80
2019-05-19T08:40:25.424Z,20.30
2019-05-19T08:42:29.096Z,20.50
2019-05-19T08:44:32.763Z,20.30
2019-05-19T08:46:36.467Z,20.40
2019-05-19T08:48:40.149Z,20.40
2019-05-19T08:50:43.827Z,20.80
2019-05-19T08:52:47.495Z,20.90
2019-05-19T08:54:51.208Z,20.50
2019-05-19T08:56:54.908Z,20.20
2019-05-19T08:58:58.616Z,20.10
2019-05-19T09:01:02.401Z,20.30
2019-05-19T09:03:06.155Z,19.80
2019-05-19T09:05:09.999Z,20.10
2019-05-19T09:07:13.788Z,19.70
2019-05-19T09:09:17.554Z,19.10
2019-05-19T09:11:21.254Z,19.70
2019-05-19T09:13:25.062Z,19.90
2019-05-19T09:15:28.769Z,20.10
2019-05-19T09:17:32.693Z,20.20
2019-05-19T09:19:36.347Z,20.80
2019-05-19T09:21:40.200Z,21.00
2019-05-19T09:23:43.917Z,21.10
2019-05-19T09:25:47.581Z,21.00
2019-05-19T09:27:51.266Z,20.80
2019-05-19T09:29:54.955Z,20.60
2019-05-19T09:31:58.635Z,20.80
2019-05-19T09:34:02.406Z,20.60
2019-05-19T09:36:06.076Z,20.20
2019-05-19T09:38:10.165Z,19.60
2019-05-19T09:40:14.159Z,19.80
2019-05-19T09:42:17.857Z,20.00
2019-05-19T09:44:21.970Z,20.20
2019-05-19T09:46:25.633Z,20.40
2019-05-19T09:48:29.332Z,20.80
2019-05-19T09:50:33.060Z,20.40
2019-05-19T09:52:36.769Z,20.30
2019-05-19T09:54:45.144Z,20.60
2019-05-19T09:56:45.905Z,20.20
2019-05-19T09:58:49.595Z,20.10
2019-05-19T10:00:53.267Z,19.70
2019-05-19T10:02:56.986Z,20.20
2019-05-19T10:05:00.659Z,21.20
2019-05-19T10:07:05.311Z,20.90
2019-05-19T10:09:10.339Z,21.30
2019-05-19T10:11:51.615Z,21.40
2019-05-19T10:13:55.308Z,21.30
2019-05-19T10:15:59.030Z,20.50
2019-05-19T10:18:02.702Z,21.00
2019-05-19T10:20:08.733Z,21.90
2019-05-19T10:22:12.499Z,21.20
2019-05-19T10:24:16.158Z,21.30
2019-05-19T10:26:19.963Z,21.60
2019-05-19T10:28:23.626Z,21.70
2019-05-19T10:30:27.335Z,21.20
2019-05-19T10:32:31.017Z,21.70
2019-05-19T10:34:34.747Z,21.40
2019-05-19T10:36:38.439Z,21.50
2019-05-19T10:38:42.126Z,22.10
2019-05-19T10:40:46.215Z,21.60
2019-05-19T10:42:49.874Z,22.10
2019-05-19T10:44:55.033Z,22.10
2019-05-19T10:47:00.317Z,22.20
2019-05-19T10:49:04.004Z,22.80
2019-05-19T10:51:07.889Z,22.60
2019-05-19T10:53:11.643Z,21.60
2019-05-19T10:55:15.414Z,22.20
2019-05-19T10:57:19.164Z,21.80
2019-05-19T10:59:22.875Z,22.40
2019-05-19T11:01:26.563Z,23.00
2019-05-19T11:03:30.222Z,23.50
2019-05-19T11:05:34.060Z,23.00
2019-05-19T11:07:37.759Z,23.00
2019-05-19T11:09:41.411Z,22.80
2019-05-19T11:11:45.100Z,23.00
2019-05-19T11:13:48.789Z,23.40
2019-05-19T11:15:52.487Z,23.30
2019-05-19T11:17:56.155Z,22.70
2019-05-19T11:19:59.815Z,23.30
2019-05-19T11:22:03.495Z,23.20
2019-05-19T11:24:07.314Z,22.40
2019-05-19T11:26:11.082Z,21.90
2019-05-19T11:28:14.758Z,22.30
2019-05-19T11:30:18.535Z,23.10
2019-05-19T11:32:22.384Z,22.80
2019-05-19T11:34:26.035Z,22.00
2019-05-19T11:36:29.723Z,21.90
2019-05-19T11:38:33.407Z,22.00
2019-05-19T11:40:37.058Z,23.00
2019-05-19T11:42:40.771Z,22.80
2019-05-19T11:44:44.434Z,23.30
2019-05-19T11:46:48.139Z,22.70
2019-05-19T11:48:51.872Z,22.60
2019-05-19T11:50:55.648Z,23.50
2019-05-19T11:52:59.340Z,23.20
2019-05-19T11:55:03.207Z,22.50
2019-05-19T11:57:06.890Z,21.70
2019-05-19T11:59:10.550Z,22.00
2019-05-19T12:01:14.221Z,22.10
2019-05-19T12:03:18.067Z,22.40
2019-05-19T12:05:21.772Z,22.50
2019-05-19T12:07:25.498Z,23.10
2019-05-19T12:09:29.186Z,23.40
2019-05-19T12:11:32.839Z,23.90
2019-05-19T12:13:36.614Z,23.70
2019-05-19T12:15:40.363Z,23.60
2019-05-19T12:17:44.042Z,23.50
2019-05-19T12:19:47.721Z,22.90
2019-05-19T12:21:51.388Z,22.70
2019-05-19T12:23:55.084Z,23.20
2019-05-19T12:25:58.803Z,22.30
2019-05-19T12:28:02.642Z,22.70
2019-05-19T12:30:07.896Z,23.30
2019-05-19T12:32:11.556Z,22.70
2019-05-19T12:34:15.237Z,22.70
2019-05-19T12:36:18.922Z,22.50
2019-05-19T12:38:22.769Z,22.10
2019-05-19T12:40:26.547Z,22.00
2019-05-19T12:42:30.210Z,22.10
2019-05-19T12:44:33.881Z,23.10
2019-05-19T12:46:37.561Z,22.40
2019-05-19T12:48:41.241Z,22.90
2019-05-19T12:50:44.898Z,23.60
2019-05-19T12:52:48.564Z,24.50
2019-05-19T12:54:52.281Z,24.90
2019-05-19T12:56:56.006Z,24.80
2019-05-19T12:58:59.903Z,25.10
2019-05-19T13:01:03.566Z,25.40
2019-05-19T13:03:07.243Z,25.20
2019-05-19T13:05:11.222Z,25.30
2019-05-19T13:07:14.890Z,25.30
2019-05-19T13:09:18.583Z,24.50
2019-05-19T13:11:22.345Z,24.50
2019-05-19T13:13:26.094Z,24.60
2019-05-19T13:15:29.780Z,24.80
2019-05-19T13:17:34.935Z,23.80
2019-05-19T13:19:38.701Z,22.90
2019-05-19T13:21:42.391Z,22.80
2019-05-19T13:23:46.058Z,23.60
2019-05-19T13:25:49.744Z,23.70
2019-05-19T13:27:53.404Z,23.80
2019-05-19T13:29:57.204Z,23.50
2019-05-19T13:32:00.870Z,24.20
2019-05-19T13:34:04.547Z,24.20
2019-05-19T13:36:08.267Z,23.80
2019-05-19T13:38:11.923Z,23.30
2019-05-19T13:40:16.000Z,21.80
2019-05-19T13:42:19.735Z,21.90
2019-05-19T13:44:23.418Z,22.60
2019-05-19T13:46:27.133Z,23.30
2019-05-19T13:48:30.882Z,23.30
2019-05-19T13:50:34.571Z,22.90
2019-05-19T13:52:38.277Z,23.00
2019-05-19T13:54:42.155Z,22.90
2019-05-19T13:56:45.852Z,22.40
2019-05-19T13:58:49.530Z,22.30
2019-05-19T14:00:53.310Z,22.10
2019-05-19T14:02:56.979Z,22.60
2019-05-19T14:05:00.664Z,22.00
2019-05-19T14:07:04.345Z,22.30
2019-05-19T14:09:08.014Z,22.40
2019-05-19T14:11:11.702Z,22.50
2019-05-19T14:13:15.858Z,22.80
2019-05-19T14:15:19.538Z,22.40
2019-05-19T14:17:23.256Z,22.30
2019-05-19T14:19:26.962Z,21.80
2019-05-19T14:21:30.712Z,21.80
2019-05-19T14:23:34.659Z,21.70
2019-05-19T14:25:38.342Z,21.80
2019-05-19T14:27:42.103Z,22.00
2019-05-19T14:29:45.915Z,22.00
2019-05-19T14:31:49.597Z,22.20
2019-05-19T14:33:53.314Z,22.80
2019-05-19T14:35:57.068Z,22.90
2019-05-19T14:38:00.756Z,21.80
2019-05-19T14:40:06.011Z,22.00
2019-05-19T14:42:11.222Z,22.10
2019-05-19T14:44:14.944Z,21.50
2019-05-19T14:46:18.592Z,20.30
2019-05-19T14:48:22.291Z,19.60
2019-05-19T14:50:26.043Z,19.80
2019-05-19T14:52:29.702Z,19.50
2019-05-19T14:54:33.391Z,19.90
2019-05-19T14:56:37.206Z,19.70
2019-05-19T14:58:40.970Z,18.90
2019-05-19T15:00:45.031Z,19.30
2019-05-19T15:02:48.701Z,19.70
2019-05-19T15:04:52.403Z,19.40
2019-05-19T15:06:56.086Z,18.60
2019-05-19T15:08:59.989Z,18.80
2019-05-19T15:11:03.728Z,18.70
2019-05-19T15:13:07.540Z,19.20
2019-05-19T15:15:11.219Z,18.60
2019-05-19T15:17:14.896Z,18.80
2019-05-19T15:19:18.602Z,19.30
2019-05-19T15:21:22.262Z,18.60
2019-05-19T15:23:25.942Z,18.60
2019-05-19T15:25:29.773Z,19.00
2019-05-19T15:27:33.529Z,19.30
2019-05-19T15:29:37.283Z,19.10
2019-05-19T15:31:41.078Z,18.70
2019-05-19T15:33:44.743Z,19.10
2019-05-19T15:35:48.424Z,19.60
2019-05-19T15:37:52.129Z,19.80
2019-05-19T15:39:55.900Z,20.50
2019-05-19T15:41:59.566Z,20.00
2019-05-19T15:44:03.270Z,19.90
2019-05-19T15:46:07.114Z,19.90
2019-05-19T15:48:10.784Z,20.20
2019-05-19T15:50:14.573Z,19.90
2019-05-19T15:52:18.338Z,20.50
2019-05-19T15:54:22.058Z,20.80
2019-05-19T15:56:25.830Z,21.30
2019-05-19T15:58:29.483Z,21.20
2019-05-19T16:00:33.167Z,20.80
2019-05-19T16:02:36.958Z,20.90
2019-05-19T16:04:40.621Z,21.00
2019-05-19T16:06:44.413Z,20.50
2019-05-19T16:08:48.087Z,20.70
2019-05-19T16:10:51.792Z,21.00
2019-05-19T16:12:55.499Z,20.70
2019-05-19T16:14:59.451Z,21.20
2019-05-19T16:17:03.137Z,21.20
2019-05-19T16:19:06.815Z,20.50
2019-05-19T16:21:10.490Z,19.40
2019-05-19T16:23:14.158Z,20.50
2019-05-19T16:25:17.796Z,20.00
2019-05-19T16:27:21.495Z,19.70
2019-05-19T16:29:25.169Z,19.40
2019-05-19T16:31:28.956Z,20.00
2019-05-19T16:33:32.687Z,20.50
2019-05-19T16:35:36.333Z,20.40
2019-05-19T16:37:40.062Z,19.60
2019-05-19T16:39:43.701Z,19.10
2019-05-19T16:41:47.439Z,19.50
2019-05-19T16:43:51.115Z,19.30
2019-05-19T16:45:54.866Z,19.60
2019-05-19T16:47:58.574Z,19.50
2019-05-19T16:50:02.223Z,19.30
2019-05-19T16:52:07.491Z,19.50
2019-05-19T16:54:12.944Z,19.60
2019-05-19T16:56:16.751Z,19.80
2019-05-19T16:58:21.642Z,19.70
2019-05-19T17:00:26.606Z,19.40
2019-05-19T17:02:30.480Z,20.00
2019-05-19T17:04:34.127Z,19.30
2019-05-19T17:06:37.820Z,19.50
2019-05-19T17:08:41.477Z,19.20
2019-05-19T17:10:45.127Z,19.10
2019-05-19T17:12:48.830Z,19.10
2019-05-19T17:14:52.507Z,19.40
2019-05-19T17:16:56.317Z,18.70
2019-05-19T17:19:00.007Z,18.50
2019-05-19T17:21:03.675Z,18.90
2019-05-19T17:23:07.366Z,18.80
2019-05-19T17:25:11.335Z,18.40
2019-05-19T17:27:15.072Z,18.30
2019-05-19T17:29:18.777Z,17.90
2019-05-19T17:31:22.494Z,17.60
2019-05-19T17:33:26.201Z,17.70
2019-05-19T17:35:30.020Z,17.60
2019-05-19T17:37:33.752Z,17.40
2019-05-19T17:39:37.463Z,17.60
2019-05-19T17:41:41.134Z,17.20
2019-05-19T17:43:44.871Z,17.20
2019-05-19T17:45:48.527Z,16.50
2019-05-19T17:47:53.573Z,16.40
2019-05-19T17:49:57.493Z,15.80
2019-05-19T17:52:01.139Z,15.90
2019-05-19T17:54:04.939Z,16.00
2019-05-19T17:56:08.595Z,16.20
2019-05-19T17:58:12.266Z,16.50
2019-05-19T18:02:31.051Z,17.50
2019-05-19T18:04:34.781Z,17.80
2019-05-19T18:06:38.524Z,16.80
2019-05-19T18:08:42.211Z,17.60
2019-05-19T18:10:45.944Z,18.30
2019-05-19T18:12:50.186Z,18.40
2019-05-19T18:17:38.723Z,19.50
2019-05-19T18:19:42.243Z,18.70
2019-05-19T18:21:45.688Z,18.60
2019-05-19T18:23:49.198Z,17.50
2019-05-19T18:25:52.671Z,17.60
2019-05-19T18:27:56.141Z,17.20
2019-05-19T18:29:59.593Z,17.20
2019-05-19T18:32:03.118Z,17.10
2019-05-19T18:34:06.594Z,16.70
2019-05-19T18:36:10.061Z,16.50
2019-05-19T18:38:13.507Z,17.00
2019-05-19T18:40:17.637Z,16.90
2019-05-19T18:42:21.146Z,17.10
2019-05-19T18:44:24.875Z,17.40
2019-05-19T18:46:28.355Z,17.70
2019-05-19T18:48:31.799Z,17.80
2019-05-19T18:50:35.287Z,17.70
2019-05-19T18:52:38.801Z,18.00
2019-05-19T18:54:42.232Z,18.00
2019-05-19T18:56:46.673Z,16.90
2019-05-19T18:58:50.127Z,17.30
2019-05-19T19:00:53.717Z,18.00
2019-05-19T19:02:57.243Z,17.70
2019-05-19T19:05:00.724Z,17.90
2019-05-19T19:07:09.235Z,17.40
2019-05-19T19:09:13.638Z,17.60
2019-05-19T19:11:19.461Z,17.20
2019-05-19T19:13:23.726Z,17.30
2019-05-19T19:15:38.696Z,17.50
2019-05-19T19:17:43.003Z,17.90
2019-05-19T19:19:49.221Z,17.90
2019-05-19T19:21:57.698Z,18.10
2019-05-19T19:24:06.916Z,18.50
2019-05-19T19:26:14.001Z,18.20
2019-05-19T19:28:17.450Z,17.40
2019-05-19T19:30:21.029Z,17.50
2019-05-19T19:32:24.501Z,18.10
2019-05-19T19:34:27.932Z,18.20
2019-05-19T19:36:31.848Z,18.40
2019-05-19T19:38:35.304Z,18.00
2019-05-19T19:40:38.732Z,17.30
2019-05-19T19:42:42.275Z,17.40
2019-05-19T19:44:46.159Z,16.80
2019-05-19T19:46:52.913Z,16.70
2019-05-19T19:48:54.866Z,16.80
2019-05-19T19:50:58.391Z,17.10
2019-05-19T19:53:01.974Z,17.80
2019-05-19T19:55:05.763Z,17.70
2019-05-19T19:57:09.286Z,18.30
2019-05-19T19:59:13.107Z,18.40
2019-05-19T20:01:17.360Z,18.90
2019-05-19T20:03:21.163Z,19.10
2019-05-19T20:05:24.721Z,19.50
2019-05-19T20:07:28.152Z,19.70
2019-05-19T20:09:31.721Z,19.90
2019-05-19T20:11:35.315Z,20.00
2019-05-19T20:13:38.746Z,20.10
2019-05-19T20:15:42.362Z,20.20
2019-05-19T20:17:45.816Z,20.20
2019-05-19T20:19:49.305Z,20.40
2019-05-19T20:21:52.816Z,20.50
2019-05-19T20:23:56.300Z,20.60
2019-05-19T20:25:59.775Z,20.70
2019-05-19T20:28:03.353Z,20.60
2019-05-19T20:30:07.422Z,20.60
2019-05-19T20:32:10.908Z,20.70
2019-05-19T20:34:14.468Z,20.70
2019-05-19T20:36:17.891Z,20.80
2019-05-19T20:38:21.383Z,20.80
2019-05-19T20:40:24.868Z,20.80
2019-05-19T20:42:28.392Z,20.80
2019-05-19T20:44:31.913Z,20.90
2019-05-19T20:46:35.421Z,20.90
2019-05-19T20:48:38.830Z,21.00
2019-05-19T20:50:42.391Z,21.00
2019-05-19T20:52:46.048Z,21.00
2019-05-19T20:54:49.579Z,21.00
2019-05-19T20:56:53.079Z,21.00
2019-05-19T20:58:56.538Z,20.90
2019-05-19T21:01:00.020Z,20.70
2019-05-19T21:03:03.440Z,20.80
2019-05-19T21:05:07.346Z,20.80
2019-05-19T21:07:10.833Z,20.70
2019-05-19T21:09:14.277Z,20.80
2019-05-19T21:11:17.818Z,20.80
2019-05-19T21:13:21.263Z,20.90
2019-05-19T21:15:24.710Z,20.90
2019-05-19T21:17:30.760Z,20.90
2019-05-19T21:19:34.191Z,20.80
2019-05-19T21:21:37.813Z,20.70
2019-05-19T21:23:41.249Z,20.60
2019-05-19T21:25:44.747Z,20.60
2019-05-19T21:27:48.186Z,20.60
2019-05-19T21:29:51.595Z,20.60
2019-05-19T21:31:55.057Z,20.50
2019-05-19T21:33:58.544Z,20.50
2019-05-19T21:36:02.020Z,20.50
2019-05-19T21:38:05.535Z,20.40
2019-05-19T21:40:09.117Z,20.40
2019-05-19T21:42:12.557Z,20.40
2019-05-19T21:44:15.974Z,20.40
2019-05-19T21:46:19.480Z,20.20
2019-05-19T21:48:32.916Z,20.20
2019-05-19T21:50:36.347Z,19.60
2019-05-19T21:52:39.792Z,19.20
2019-05-19T21:54:43.223Z,19.40
2019-05-19T21:56:46.737Z,19.50
2019-05-19T21:58:50.160Z,19.60
2019-05-19T22:00:54.026Z,19.60
2019-05-19T22:02:57.492Z,19.50
2019-05-19T22:05:01.662Z,19.50
2019-05-19T22:07:25.239Z,19.10
2019-05-19T22:09:30.434Z,19.10
2019-05-19T22:11:33.924Z,19.00
2019-05-19T22:13:37.417Z,18.90
2019-05-19T22:15:40.849Z,19.00
2019-05-19T22:17:44.349Z,19.10
2019-05-19T22:19:50.636Z,19.20
2019-05-19T22:21:54.051Z,19.40
2019-05-19T22:23:57.494Z,19.30
2019-05-19T22:26:00.928Z,19.20
2019-05-19T22:28:04.479Z,18.80
2019-05-19T22:30:08.536Z,18.80
2019-05-19T22:32:12.072Z,18.10
2019-05-19T22:34:15.606Z,18.10
2019-05-19T22:36:19.014Z,18.20
2019-05-19T22:38:22.536Z,18.00
2019-05-19T22:40:26.036Z,18.30
2019-05-19T22:42:29.459Z,18.50
2019-05-19T22:44:32.899Z,18.20
2019-05-19T22:46:36.398Z,18.00
2019-05-19T22:48:39.916Z,17.70
2019-05-19T22:50:43.355Z,17.30
2019-05-19T22:52:46.789Z,17.00
2019-05-19T22:54:50.303Z,16.70
2019-05-19T22:56:53.719Z,17.20
2019-05-19T22:58:57.170Z,17.30
2019-05-19T23:01:00.629Z,17.40
2019-05-19T23:03:04.187Z,17.40
2019-05-19T23:05:08.087Z,17.40
2019-05-19T23:07:11.518Z,17.60
2019-05-19T23:09:15.024Z,17.30
2019-05-19T23:11:18.476Z,16.90
2019-05-19T23:13:22.066Z,17.40
2019-05-19T23:15:25.651Z,17.70
2019-05-19T23:17:29.073Z,17.20
2019-05-19T23:19:32.549Z,17.70
2019-05-19T23:21:35.983Z,18.00
2019-05-19T23:23:39.439Z,18.40
2019-05-19T23:25:42.874Z,18.80
2019-05-19T23:27:46.314Z,19.00
2019-05-19T23:29:49.808Z,19.10
2019-05-19T23:32:06.308Z,18.90
2019-05-19T23:33:58.519Z,19.10
2019-05-19T23:36:02.140Z,19.20
2019-05-19T23:38:05.630Z,19.40
2019-05-19T23:40:09.402Z,19.50
2019-05-19T23:42:12.850Z,19.30
2019-05-19T23:44:16.298Z,19.30
2019-05-19T23:46:19.727Z,19.00
2019-05-19T23:48:23.227Z,18.40
2019-05-19T23:50:26.752Z,17.80
2019-05-19T23:52:30.258Z,17.30
2019-05-19T23:54:33.708Z,16.70
2019-05-19T23:56:37.127Z,16.70
2019-05-19T23:58:40.713Z,16.40
